sensor_id;sensor_type;location;lat;lon;timestamp;pressure;altitude;pressure_sealevel;temperature;humidity
44988;BME280;35735;52.226;21.254;2023-05-29T00:04:57;100607.63;;;10.15;99.19
44988;BME280;35735;52.226;21.254;2023-05-29T00:09:58;100604.91;;;10.12;99.29
44988;BME280;35735;52.226;21.254;2023-05-29T00:14:59;100607.59;;;10.10;99.42
44988;BME280;35735;52.226;21.254;2023-05-29T00:20:00;100603.13;;;10.09;99.53
44988;BME280;35735;52.226;21.254;2023-05-29T00:25:00;100597.69;;;10.06;99.40
44988;BME280;35735;52.226;21.254;2023-05-29T00:30:02;100592.25;;;9.98;99.46
44988;BME280;35735;52.226;21.254;2023-05-29T00:35:04;100590.41;;;9.90;99.61
44988;BME280;35735;52.226;21.254;2023-05-29T00:40:05;100595.78;;;9.87;99.79
44988;BME280;35735;52.226;21.254;2023-05-29T00:45:06;100594.00;;;9.82;99.86
44988;BME280;35735;52.226;21.254;2023-05-29T00:50:08;100598.44;;;9.76;99.76
44988;BME280;35735;52.226;21.254;2023-05-29T00:55:10;100597.34;;;9.48;99.96
44988;BME280;35735;52.226;21.254;2023-05-29T01:00:11;100602.53;;;9.23;100.00
44988;BME280;35735;52.226;21.254;2023-05-29T01:05:12;100608.81;;;9.22;100.00
44988;BME280;35735;52.226;21.254;2023-05-29T01:10:13;100603.50;;;9.30;100.00
44988;BME280;35735;52.226;21.254;2023-05-29T01:15:20;100600.81;;;9.31;100.00
44988;BME280;35735;52.226;21.254;2023-05-29T01:20:35;100601.50;;;9.07;100.00
44988;BME280;35735;52.226;21.254;2023-05-29T01:25:57;100590.66;;;8.99;100.00
44988;BME280;35735;52.226;21.254;2023-05-29T01:31:02;100592.50;;;9.05;100.00
44988;BME280;35735;52.226;21.254;2023-05-29T01:36:04;100597.03;;;9.07;100.00
44988;BME280;35735;52.226;21.254;2023-05-29T01:41:04;100594.28;;;9.01;100.00
44988;BME280;35735;52.226;21.254;2023-05-29T01:46:05;100590.66;;;8.98;100.00
44988;BME280;35735;52.226;21.254;2023-05-29T01:51:05;100594.25;;;8.98;100.00
44988;BME280;35735;52.226;21.254;2023-05-29T01:56:06;100606.78;;;8.96;100.00
44988;BME280;35735;52.226;21.254;2023-05-29T02:01:08;100589.69;;;8.91;100.00
44988;BME280;35735;52.226;21.254;2023-05-29T02:06:09;100597.75;;;8.88;100.00
44988;BME280;35735;52.226;21.254;2023-05-29T02:11:09;100595.88;;;8.81;100.00
44988;BME280;35735;52.226;21.254;2023-05-29T02:16:10;100585.91;;;8.74;100.00
44988;BME280;35735;52.226;21.254;2023-05-29T02:21:10;100575.16;;;8.74;100.00
44988;BME280;35735;52.226;21.254;2023-05-29T02:26:12;100582.28;;;8.68;100.00
44988;BME280;35735;52.226;21.254;2023-05-29T02:31:13;100574.19;;;8.64;100.00
44988;BME280;35735;52.226;21.254;2023-05-29T02:36:13;100563.38;;;8.61;100.00
44988;BME280;35735;52.226;21.254;2023-05-29T02:41:14;100571.44;;;8.58;100.00
44988;BME280;35735;52.226;21.254;2023-05-29T02:46:14;100558.81;;;8.55;100.00
44988;BME280;35735;52.226;21.254;2023-05-29T02:51:15;100554.38;;;8.56;100.00
44988;BME280;35735;52.226;21.254;2023-05-29T02:56:16;100560.56;;;8.50;100.00
44988;BME280;35735;52.226;21.254;2023-05-29T03:01:17;100559.69;;;8.51;100.00
44988;BME280;35735;52.226;21.254;2023-05-29T03:06:17;100556.97;;;8.48;100.00
44988;BME280;35735;52.226;21.254;2023-05-29T03:11:18;100566.00;;;8.53;100.00
44988;BME280;35735;52.226;21.254;2023-05-29T03:16:18;100572.22;;;8.47;100.00
44988;BME280;35735;52.226;21.254;2023-05-29T03:21:19;100565.06;;;8.51;100.00
44988;BME280;35735;52.226;21.254;2023-05-29T03:26:19;100573.25;;;8.59;100.00
44988;BME280;35735;52.226;21.254;2023-05-29T03:31:20;100558.87;;;8.58;100.00
44988;BME280;35735;52.226;21.254;2023-05-29T03:36:21;100575.16;;;8.70;100.00
44988;BME280;35735;52.226;21.254;2023-05-29T03:41:21;100570.72;;;8.77;100.00
44988;BME280;35735;52.226;21.254;2023-05-29T03:46:22;100579.63;;;8.71;100.00
44988;BME280;35735;52.226;21.254;2023-05-29T03:51:22;100576.91;;;8.70;100.00
44988;BME280;35735;52.226;21.254;2023-05-29T03:56:23;100579.78;;;8.84;100.00
44988;BME280;35735;52.226;21.254;2023-05-29T04:01:23;100581.69;;;8.99;100.00
44988;BME280;35735;52.226;21.254;2023-05-29T04:06:24;100584.62;;;9.28;100.00
44988;BME280;35735;52.226;21.254;2023-05-29T04:11:25;100587.53;;;9.62;100.00
44988;BME280;35735;52.226;21.254;2023-05-29T04:16:25;100596.81;;;10.06;100.00
44988;BME280;35735;52.226;21.254;2023-05-29T04:21:26;100589.84;;;10.60;100.00
44988;BME280;35735;52.226;21.254;2023-05-29T04:26:26;100592.59;;;10.89;100.00
44988;BME280;35735;52.226;21.254;2023-05-29T04:31:27;100594.41;;;11.43;100.00
44988;BME280;35735;52.226;21.254;2023-05-29T04:36:27;100596.13;;;12.02;100.00
44988;BME280;35735;52.226;21.254;2023-05-29T04:41:28;100594.13;;;12.48;100.00
44988;BME280;35735;52.226;21.254;2023-05-29T04:46:29;100590.19;;;13.01;100.00
44988;BME280;35735;52.226;21.254;2023-05-29T04:51:30;100589.78;;;13.57;100.00
44988;BME280;35735;52.226;21.254;2023-05-29T04:56:30;100589.19;;;14.09;100.00
44988;BME280;35735;52.226;21.254;2023-05-29T05:01:31;100588.56;;;14.61;100.00
44988;BME280;35735;52.226;21.254;2023-05-29T05:06:31;100597.69;;;15.16;99.40
44988;BME280;35735;52.226;21.254;2023-05-29T05:11:32;100599.41;;;15.77;97.70
44988;BME280;35735;52.226;21.254;2023-05-29T05:16:32;100597.53;;;16.25;95.18
44988;BME280;35735;52.226;21.254;2023-05-29T05:21:33;100590.16;;;16.74;93.69
44988;BME280;35735;52.226;21.254;2023-05-29T05:26:34;100585.53;;;17.17;91.87
44988;BME280;35735;52.226;21.254;2023-05-29T05:31:34;100596.00;;;17.70;89.16
44988;BME280;35735;52.226;21.254;2023-05-29T05:36:35;100588.19;;;18.23;86.62
44988;BME280;35735;52.226;21.254;2023-05-29T05:41:35;100587.84;;;18.65;84.02
44988;BME280;35735;52.226;21.254;2023-05-29T05:46:36;100589.94;;;18.87;82.50
44988;BME280;35735;52.226;21.254;2023-05-29T05:51:36;100591.12;;;19.35;81.40
44988;BME280;35735;52.226;21.254;2023-05-29T05:56:37;100592.28;;;19.81;80.36
44988;BME280;35735;52.226;21.254;2023-05-29T06:01:37;100594.50;;;20.22;77.94
44988;BME280;35735;52.226;21.254;2023-05-29T06:06:38;100599.78;;;20.51;76.59
44988;BME280;35735;52.226;21.254;2023-05-29T06:11:38;100589.87;;;20.95;75.92
44988;BME280;35735;52.226;21.254;2023-05-29T06:16:39;100595.69;;;21.31;71.46
44988;BME280;35735;52.226;21.254;2023-05-29T06:21:40;100589.50;;;21.48;69.36
44988;BME280;35735;52.226;21.254;2023-05-29T06:26:41;100590.31;;;21.72;68.14
44988;BME280;35735;52.226;21.254;2023-05-29T06:31:41;100591.62;;;22.05;68.09
44988;BME280;35735;52.226;21.254;2023-05-29T06:36:42;100584.84;;;22.34;67.00
44988;BME280;35735;52.226;21.254;2023-05-29T06:41:42;100594.84;;;22.55;67.41
44988;BME280;35735;52.226;21.254;2023-05-29T06:46:43;100588.59;;;22.90;65.13
44988;BME280;35735;52.226;21.254;2023-05-29T06:51:44;100587.59;;;23.11;63.04
44988;BME280;35735;52.226;21.254;2023-05-29T06:56:44;100582.94;;;23.31;61.01
44988;BME280;35735;52.226;21.254;2023-05-29T07:01:45;100585.06;;;23.43;59.09
44988;BME280;35735;52.226;21.254;2023-05-29T07:06:45;100584.47;;;23.56;58.51
44988;BME280;35735;52.226;21.254;2023-05-29T07:11:46;100592.41;;;23.79;57.62
44988;BME280;35735;52.226;21.254;2023-05-29T07:16:46;100595.50;;;24.08;56.82
44988;BME280;35735;52.226;21.254;2023-05-29T07:21:47;100592.56;;;24.29;55.95
44988;BME280;35735;52.226;21.254;2023-05-29T07:26:48;100597.47;;;24.57;54.87
44988;BME280;35735;52.226;21.254;2023-05-29T07:31:52;100598.84;;;24.48;53.98
44988;BME280;35735;52.226;21.254;2023-05-29T07:37:01;100599.06;;;24.28;50.58
44988;BME280;35735;52.226;21.254;2023-05-29T07:42:06;100597.91;;;24.32;50.58
44988;BME280;35735;52.226;21.254;2023-05-29T07:47:07;100606.94;;;24.18;50.39
44988;BME280;35735;52.226;21.254;2023-05-29T07:52:08;100605.56;;;24.27;49.97
44988;BME280;35735;52.226;21.254;2023-05-29T07:57:09;100608.00;;;24.33;48.51
44988;BME280;35735;52.226;21.254;2023-05-29T08:02:09;100604.03;;;24.54;49.00
44988;BME280;35735;52.226;21.254;2023-05-29T08:07:10;100606.28;;;24.81;48.49
44988;BME280;35735;52.226;21.254;2023-05-29T08:12:10;100606.72;;;25.05;49.04
44988;BME280;35735;52.226;21.254;2023-05-29T08:17:11;100604.62;;;25.26;46.47
44988;BME280;35735;52.226;21.254;2023-05-29T08:22:12;100605.31;;;24.98;45.12
44988;BME280;35735;52.226;21.254;2023-05-29T08:27:14;100607.91;;;25.01;44.18
44988;BME280;35735;52.226;21.254;2023-05-29T08:32:15;100600.28;;;24.89;44.83
44988;BME280;35735;52.226;21.254;2023-05-29T08:37:15;100594.62;;;25.08;44.69
44988;BME280;35735;52.226;21.254;2023-05-29T08:42:21;100602.50;;;25.31;44.68
44988;BME280;35735;52.226;21.254;2023-05-29T08:47:26;100597.38;;;25.56;42.87
44988;BME280;35735;52.226;21.254;2023-05-29T08:52:29;100603.69;;;25.26;42.07
44988;BME280;35735;52.226;21.254;2023-05-29T08:57:34;100607.72;;;25.20;43.74
44988;BME280;35735;52.226;21.254;2023-05-29T09:02:34;100606.31;;;25.45;44.13
44988;BME280;35735;52.226;21.254;2023-05-29T09:07:36;100599.84;;;25.60;42.80
44988;BME280;35735;52.226;21.254;2023-05-29T09:12:37;100593.13;;;25.50;42.77
44988;BME280;35735;52.226;21.254;2023-05-29T09:17:38;100590.16;;;25.21;43.01
44988;BME280;35735;52.226;21.254;2023-05-29T09:22:42;100590.09;;;25.39;41.95
44988;BME280;35735;52.226;21.254;2023-05-29T09:27:46;100585.59;;;25.52;42.60
44988;BME280;35735;52.226;21.254;2023-05-29T09:32:53;100584.31;;;25.74;42.57
44988;BME280;35735;52.226;21.254;2023-05-29T09:37:53;100583.19;;;25.92;39.93
44988;BME280;35735;52.226;21.254;2023-05-29T09:42:54;100578.59;;;25.14;39.93
44988;BME280;35735;52.226;21.254;2023-05-29T09:47:54;100576.00;;;24.95;42.96
44988;BME280;35735;52.226;21.254;2023-05-29T09:52:58;100573.94;;;25.15;41.57
44988;BME280;35735;52.226;21.254;2023-05-29T09:57:59;100576.53;;;25.02;42.07
44988;BME280;35735;52.226;21.254;2023-05-29T10:02:59;100574.03;;;25.13;42.41
44988;BME280;35735;52.226;21.254;2023-05-29T10:08:02;100569.59;;;25.43;43.41
44988;BME280;35735;52.226;21.254;2023-05-29T10:13:06;100563.72;;;25.33;42.17
44988;BME280;35735;52.226;21.254;2023-05-29T10:18:18;100568.44;;;25.15;42.16
44988;BME280;35735;52.226;21.254;2023-05-29T10:23:23;100559.78;;;25.21;41.51
44988;BME280;35735;52.226;21.254;2023-05-29T10:28:25;100552.81;;;25.46;42.25
44988;BME280;35735;52.226;21.254;2023-05-29T10:33:37;100562.97;;;25.45;40.42
44988;BME280;35735;52.226;21.254;2023-05-29T10:38:47;100564.19;;;25.72;41.07
44988;BME280;35735;52.226;21.254;2023-05-29T10:43:48;100561.06;;;26.08;41.71
44988;BME280;35735;52.226;21.254;2023-05-29T10:48:49;100558.38;;;26.06;40.70
44988;BME280;35735;52.226;21.254;2023-05-29T10:53:50;100554.63;;;26.22;39.79
44988;BME280;35735;52.226;21.254;2023-05-29T10:58:55;100552.16;;;26.03;39.15
44988;BME280;35735;52.226;21.254;2023-05-29T11:09:27;100538.59;;;25.98;38.70
44988;BME280;35735;52.226;21.254;2023-05-29T11:14:28;100535.34;;;25.45;38.75
44988;BME280;35735;52.226;21.254;2023-05-29T11:19:29;100526.94;;;25.63;41.27
44988;BME280;35735;52.226;21.254;2023-05-29T11:24:29;100531.28;;;25.97;39.76
44988;BME280;35735;52.226;21.254;2023-05-29T11:29:30;100521.16;;;25.82;38.74
44988;BME280;35735;52.226;21.254;2023-05-29T11:34:31;100517.19;;;25.86;39.44
44988;BME280;35735;52.226;21.254;2023-05-29T11:39:37;100510.94;;;25.98;39.70
44988;BME280;35735;52.226;21.254;2023-05-29T11:44:37;100507.22;;;26.14;39.95
44988;BME280;35735;52.226;21.254;2023-05-29T11:49:38;100511.16;;;26.24;40.05
44988;BME280;35735;52.226;21.254;2023-05-29T11:54:39;100507.63;;;26.36;39.47
44988;BME280;35735;52.226;21.254;2023-05-29T11:59:39;100498.31;;;26.52;39.34
44988;BME280;35735;52.226;21.254;2023-05-29T12:04:40;100493.16;;;26.60;39.20
44988;BME280;35735;52.226;21.254;2023-05-29T12:09:40;100502.94;;;26.51;39.38
44988;BME280;35735;52.226;21.254;2023-05-29T12:14:41;100503.06;;;26.21;39.42
44988;BME280;35735;52.226;21.254;2023-05-29T12:19:41;100497.22;;;25.97;40.05
44988;BME280;35735;52.226;21.254;2023-05-29T12:24:42;100500.38;;;25.60;40.44
44988;BME280;35735;52.226;21.254;2023-05-29T12:29:42;100489.22;;;25.31;41.27
44988;BME280;35735;52.226;21.254;2023-05-29T12:34:48;100484.13;;;25.24;41.39
44988;BME280;35735;52.226;21.254;2023-05-29T12:40:09;100482.03;;;25.13;42.72
44988;BME280;35735;52.226;21.254;2023-05-29T12:45:19;100481.09;;;25.12;43.61
44988;BME280;35735;52.226;21.254;2023-05-29T12:50:26;100471.94;;;25.12;42.79
44988;BME280;35735;52.226;21.254;2023-05-29T12:55:29;100475.13;;;25.20;42.80
44988;BME280;35735;52.226;21.254;2023-05-29T13:00:30;100468.19;;;25.29;42.42
44988;BME280;35735;52.226;21.254;2023-05-29T13:05:31;100465.69;;;25.24;42.69
44988;BME280;35735;52.226;21.254;2023-05-29T13:10:32;100458.56;;;25.20;42.90
44988;BME280;35735;52.226;21.254;2023-05-29T13:15:32;100455.72;;;25.06;42.83
44988;BME280;35735;52.226;21.254;2023-05-29T13:20:33;100453.97;;;25.05;44.27
44988;BME280;35735;52.226;21.254;2023-05-29T13:25:33;100445.78;;;25.03;43.22
44988;BME280;35735;52.226;21.254;2023-05-29T13:30:34;100447.13;;;24.96;43.79
44988;BME280;35735;52.226;21.254;2023-05-29T13:35:34;100444.47;;;24.78;44.45
44988;BME280;35735;52.226;21.254;2023-05-29T13:40:35;100437.63;;;24.70;44.99
44988;BME280;35735;52.226;21.254;2023-05-29T13:45:35;100437.53;;;24.55;45.11
44988;BME280;35735;52.226;21.254;2023-05-29T13:50:36;100433.84;;;24.39;45.36
44988;BME280;35735;52.226;21.254;2023-05-29T13:55:36;100432.97;;;24.38;45.77
44988;BME280;35735;52.226;21.254;2023-05-29T14:00:37;100434.38;;;24.30;45.69
44988;BME280;35735;52.226;21.254;2023-05-29T14:05:38;100439.19;;;24.26;46.56
44988;BME280;35735;52.226;21.254;2023-05-29T14:10:38;100428.72;;;24.33;46.63
44988;BME280;35735;52.226;21.254;2023-05-29T14:15:39;100427.09;;;24.29;46.13
44988;BME280;35735;52.226;21.254;2023-05-29T14:20:39;100422.28;;;24.16;46.54
44988;BME280;35735;52.226;21.254;2023-05-29T14:25:40;100424.75;;;24.05;46.51
44988;BME280;35735;52.226;21.254;2023-05-29T14:30:40;100418.97;;;24.10;46.85
44988;BME280;35735;52.226;21.254;2023-05-29T14:35:41;100415.28;;;23.93;45.86
44988;BME280;35735;52.226;21.254;2023-05-29T14:40:41;100405.69;;;23.84;46.28
44988;BME280;35735;52.226;21.254;2023-05-29T14:45:42;100409.00;;;23.91;46.07
44988;BME280;35735;52.226;21.254;2023-05-29T14:50:43;100407.44;;;23.85;46.21
44988;BME280;35735;52.226;21.254;2023-05-29T14:55:43;100403.56;;;23.90;46.58
44988;BME280;35735;52.226;21.254;2023-05-29T15:00:44;100392.69;;;23.86;46.80
44988;BME280;35735;52.226;21.254;2023-05-29T15:05:45;100393.97;;;23.97;46.19
44988;BME280;35735;52.226;21.254;2023-05-29T15:10:46;100392.00;;;23.99;46.44
44988;BME280;35735;52.226;21.254;2023-05-29T15:15:47;100388.63;;;23.94;46.74
44988;BME280;35735;52.226;21.254;2023-05-29T15:20:47;100384.25;;;23.90;47.12
44988;BME280;35735;52.226;21.254;2023-05-29T15:25:49;100388.97;;;23.88;47.25
44988;BME280;35735;52.226;21.254;2023-05-29T15:30:50;100391.09;;;23.82;47.67
44988;BME280;35735;52.226;21.254;2023-05-29T15:35:50;100385.72;;;23.79;48.02
44988;BME280;35735;52.226;21.254;2023-05-29T15:40:51;100391.31;;;23.78;48.23
44988;BME280;35735;52.226;21.254;2023-05-29T15:45:51;100380.63;;;23.72;47.63
44988;BME280;35735;52.226;21.254;2023-05-29T15:50:52;100388.91;;;23.72;47.81
44988;BME280;35735;52.226;21.254;2023-05-29T15:55:53;100382.66;;;23.68;47.63
44988;BME280;35735;52.226;21.254;2023-05-29T16:00:54;100384.78;;;23.63;48.70
44988;BME280;35735;52.226;21.254;2023-05-29T16:05:55;100388.34;;;23.65;48.56
44988;BME280;35735;52.226;21.254;2023-05-29T16:10:55;100379.13;;;23.66;48.34
44988;BME280;35735;52.226;21.254;2023-05-29T16:15:56;100380.16;;;23.63;47.84
44988;BME280;35735;52.226;21.254;2023-05-29T16:20:56;100376.22;;;23.52;47.38
44988;BME280;35735;52.226;21.254;2023-05-29T16:25:57;100376.09;;;23.37;47.83
44988;BME280;35735;52.226;21.254;2023-05-29T16:30:57;100373.25;;;23.21;48.26
44988;BME280;35735;52.226;21.254;2023-05-29T16:35:58;100380.00;;;23.16;48.65
44988;BME280;35735;52.226;21.254;2023-05-29T16:40:58;100372.22;;;23.06;49.03
44988;BME280;35735;52.226;21.254;2023-05-29T16:45:59;100373.13;;;23.05;49.66
44988;BME280;35735;52.226;21.254;2023-05-29T16:51:00;100372.56;;;22.99;49.38
44988;BME280;35735;52.226;21.254;2023-05-29T16:56:00;100370.38;;;22.88;49.13
44988;BME280;35735;52.226;21.254;2023-05-29T17:01:01;100372.50;;;22.83;49.39
44988;BME280;35735;52.226;21.254;2023-05-29T17:06:02;100370.97;;;22.77;49.66
44988;BME280;35735;52.226;21.254;2023-05-29T17:11:04;100370.69;;;22.82;50.50
44988;BME280;35735;52.226;21.254;2023-05-29T17:16:05;100368.94;;;22.81;51.32
44988;BME280;35735;52.226;21.254;2023-05-29T17:21:05;100367.16;;;22.80;51.43
44988;BME280;35735;52.226;21.254;2023-05-29T17:26:06;100367.28;;;22.76;51.87
44988;BME280;35735;52.226;21.254;2023-05-29T17:31:06;100372.37;;;22.67;52.15
44988;BME280;35735;52.226;21.254;2023-05-29T17:36:07;100367.94;;;22.64;53.04
44988;BME280;35735;52.226;21.254;2023-05-29T17:41:08;100376.50;;;22.58;53.27
44988;BME280;35735;52.226;21.254;2023-05-29T17:46:08;100376.00;;;22.50;54.42
44988;BME280;35735;52.226;21.254;2023-05-29T17:51:09;100380.03;;;22.43;55.49
44988;BME280;35735;52.226;21.254;2023-05-29T17:56:09;100380.66;;;22.30;57.16
44988;BME280;35735;52.226;21.254;2023-05-29T18:01:10;100381.34;;;22.15;58.80
44988;BME280;35735;52.226;21.254;2023-05-29T18:06:10;100378.31;;;22.02;59.88
44988;BME280;35735;52.226;21.254;2023-05-29T18:11:11;100376.34;;;21.85;61.84
44988;BME280;35735;52.226;21.254;2023-05-29T18:16:11;100382.44;;;21.73;62.87
44988;BME280;35735;52.226;21.254;2023-05-29T18:21:12;100382.03;;;21.61;63.53
44988;BME280;35735;52.226;21.254;2023-05-29T18:26:13;100376.34;;;21.45;64.86
44988;BME280;35735;52.226;21.254;2023-05-29T18:31:13;100380.81;;;21.27;65.62
44988;BME280;35735;52.226;21.254;2023-05-29T18:36:14;100383.63;;;21.05;66.84
44988;BME280;35735;52.226;21.254;2023-05-29T18:41:16;100390.81;;;20.87;67.93
44988;BME280;35735;52.226;21.254;2023-05-29T18:46:16;100409.97;;;20.67;67.47
44988;BME280;35735;52.226;21.254;2023-05-29T18:51:17;100396.44;;;20.40;67.92
44988;BME280;35735;52.226;21.254;2023-05-29T18:56:18;100394.50;;;20.20;69.40
44988;BME280;35735;52.226;21.254;2023-05-29T19:01:18;100405.34;;;19.99;70.62
44988;BME280;35735;52.226;21.254;2023-05-29T19:06:19;100425.00;;;19.62;70.14
44988;BME280;35735;52.226;21.254;2023-05-29T19:11:20;100425.84;;;19.39;69.97
44988;BME280;35735;52.226;21.254;2023-05-29T19:16:20;100432.88;;;19.21;70.85
44988;BME280;35735;52.226;21.254;2023-05-29T19:21:21;100428.78;;;19.07;71.76
44988;BME280;35735;52.226;21.254;2023-05-29T19:26:22;100431.03;;;18.96;72.41
44988;BME280;35735;52.226;21.254;2023-05-29T19:31:22;100432.12;;;18.91;72.99
44988;BME280;35735;52.226;21.254;2023-05-29T19:36:23;100440.37;;;18.89;73.34
44988;BME280;35735;52.226;21.254;2023-05-29T19:41:24;100444.19;;;18.85;73.56
44988;BME280;35735;52.226;21.254;2023-05-29T19:46:24;100440.75;;;18.77;73.87
44988;BME280;35735;52.226;21.254;2023-05-29T19:51:25;100443.66;;;18.72;74.12
44988;BME280;35735;52.226;21.254;2023-05-29T19:56:25;100441.06;;;18.67;74.33
44988;BME280;35735;52.226;21.254;2023-05-29T20:01:26;100445.78;;;18.62;74.50
44988;BME280;35735;52.226;21.254;2023-05-29T20:06:30;100447.72;;;18.59;74.80
44988;BME280;35735;52.226;21.254;2023-05-29T20:11:30;100446.00;;;18.56;75.03
44988;BME280;35735;52.226;21.254;2023-05-29T20:16:31;100450.72;;;18.51;75.16
44988;BME280;35735;52.226;21.254;2023-05-29T20:21:32;100459.97;;;18.47;75.41
44988;BME280;35735;52.226;21.254;2023-05-29T20:26:32;100463.75;;;18.43;75.55
44988;BME280;35735;52.226;21.254;2023-05-29T20:31:33;100468.28;;;18.42;75.80
44988;BME280;35735;52.226;21.254;2023-05-29T20:36:33;100475.97;;;18.31;76.00
44988;BME280;35735;52.226;21.254;2023-05-29T20:41:34;100474.34;;;18.24;76.70
44988;BME280;35735;52.226;21.254;2023-05-29T20:46:35;100472.75;;;18.17;76.98
44988;BME280;35735;52.226;21.254;2023-05-29T20:51:35;100473.75;;;18.12;76.93
44988;BME280;35735;52.226;21.254;2023-05-29T20:56:36;100477.50;;;18.10;76.97
44988;BME280;35735;52.226;21.254;2023-05-29T21:01:36;100481.25;;;18.06;77.16
44988;BME280;35735;52.226;21.254;2023-05-29T21:06:37;100484.94;;;18.05;77.52
44988;BME280;35735;52.226;21.254;2023-05-29T21:11:38;100486.97;;;17.98;77.81
44988;BME280;35735;52.226;21.254;2023-05-29T21:16:38;100488.09;;;17.91;78.04
44988;BME280;35735;52.226;21.254;2023-05-29T21:21:39;100491.84;;;17.85;78.26
44988;BME280;35735;52.226;21.254;2023-05-29T21:26:40;100494.75;;;17.79;78.55
44988;BME280;35735;52.226;21.254;2023-05-29T21:31:40;100491.19;;;17.75;78.86
44988;BME280;35735;52.226;21.254;2023-05-29T21:36:41;100491.53;;;17.65;79.05
44988;BME280;35735;52.226;21.254;2023-05-29T21:41:45;100487.22;;;17.56;79.44
44988;BME280;35735;52.226;21.254;2023-05-29T21:46:46;100491.84;;;17.52;79.72
44988;BME280;35735;52.226;21.254;2023-05-29T21:51:46;100488.53;;;17.41;80.09
44988;BME280;35735;52.226;21.254;2023-05-29T21:56:47;100488.84;;;17.29;80.29
44988;BME280;35735;52.226;21.254;2023-05-29T22:01:48;100491.00;;;17.17;80.49
44988;BME280;35735;52.226;21.254;2023-05-29T22:06:49;100480.22;;;17.11;80.74
44988;BME280;35735;52.226;21.254;2023-05-29T22:11:49;100482.25;;;17.03;81.16
44988;BME280;35735;52.226;21.254;2023-05-29T22:16:50;100477.00;;;16.95;81.48
44988;BME280;35735;52.226;21.254;2023-05-29T22:21:51;100480.72;;;16.93;81.68
44988;BME280;35735;52.226;21.254;2023-05-29T22:26:51;100480.87;;;16.83;81.82
44988;BME280;35735;52.226;21.254;2023-05-29T22:31:52;100489.19;;;16.79;82.02
44988;BME280;35735;52.226;21.254;2023-05-29T22:36:53;100488.31;;;16.77;82.17
44988;BME280;35735;52.226;21.254;2023-05-29T22:41:53;100496.69;;;16.71;82.50
44988;BME280;35735;52.226;21.254;2023-05-29T22:46:54;100498.53;;;16.67;82.63
44988;BME280;35735;52.226;21.254;2023-05-29T22:51:54;100501.19;;;16.70;82.71
44988;BME280;35735;52.226;21.254;2023-05-29T22:56:55;100490.47;;;16.64;82.87
44988;BME280;35735;52.226;21.254;2023-05-29T23:01:55;100495.19;;;16.57;83.00
44988;BME280;35735;52.226;21.254;2023-05-29T23:06:56;100489.00;;;16.49;83.01
44988;BME280;35735;52.226;21.254;2023-05-29T23:11:56;100476.47;;;16.40;83.12
44988;BME280;35735;52.226;21.254;2023-05-29T23:16:57;100473.03;;;16.32;83.02
44988;BME280;35735;52.226;21.254;2023-05-29T23:21:57;100483.12;;;16.27;83.18
44988;BME280;35735;52.226;21.254;2023-05-29T23:26:58;100478.72;;;16.21;83.29
44988;BME280;35735;52.226;21.254;2023-05-29T23:31:59;100475.31;;;16.11;83.50
44988;BME280;35735;52.226;21.254;2023-05-29T23:36:59;100481.81;;;16.04;83.91
44988;BME280;35735;52.226;21.254;2023-05-29T23:42:00;100479.06;;;16.06;84.03
44988;BME280;35735;52.226;21.254;2023-05-29T23:47:00;100470.94;;;16.04;84.27
44988;BME280;35735;52.226;21.254;2023-05-29T23:52:01;100475.59;;;15.99;84.37
44988;BME280;35735;52.226;21.254;2023-05-29T23:57:02;100487.56;;;15.90;84.73
